Time;durP1;ratioP1;P1;durP2;ratioP2;P2;SDS_P1;SDS_P2;PMS_P1;PMS_P2;Temp;Humidity;BMP_temperature;BMP_pressure;BME280_temperature;BME280_humidity;BME280_pressure;Samples;Min_cycle;Max_cycle;Signal;HPM_P1;HPM_P2
2023/03/06 00:01:06;;;;;;;34.90;20.80;;;5.50;99.90;;;;;;5135223;27;20532;-75
2023/03/06 00:03:32;;;;;;;33.53;20.07;;;5.60;99.90;;;;;;5133974;27;20176;-76
2023/03/06 00:05:59;;;;;;;32.93;19.33;;;5.70;99.90;;;;;;5136066;27;20225;-75
2023/03/06 00:08:27;;;;;;;37.50;18.97;;;5.80;99.90;;;;;;5135509;27;20189;-77
2023/03/06 00:10:52;;;;;;;35.10;19.87;;;5.80;99.90;;;;;;5135656;27;20214;-75
2023/03/06 00:13:20;;;;;;;34.27;20.43;;;5.70;99.90;;;;;;5135484;27;20162;-75
2023/03/06 00:15:47;;;;;;;33.00;20.07;;;5.70;99.90;;;;;;5116621;27;20166;-76
2023/03/06 00:18:13;;;;;;;30.57;18.60;;;5.60;99.90;;;;;;5135267;27;20179;-75
2023/03/06 00:20:41;;;;;;;34.67;19.50;;;5.70;99.90;;;;;;5134938;27;20623;-76
2023/03/06 00:23:09;;;;;;;35.80;19.17;;;5.70;99.90;;;;;;5116655;27;20156;-76
2023/03/06 00:25:37;;;;;;;37.37;19.53;;;5.40;99.90;;;;;;5116577;27;20256;-75
2023/03/06 00:28:05;;;;;;;34.40;19.73;;;5.70;99.90;;;;;;5135121;27;20512;-75
2023/03/06 00:30:30;;;;;;;31.90;19.43;;;5.80;99.90;;;;;;5134839;27;20168;-76
2023/03/06 00:32:57;;;;;;;31.30;18.20;;;5.90;99.90;;;;;;5134168;27;20211;-76
2023/03/06 00:35:23;;;;;;;38.10;20.73;;;5.80;99.90;;;;;;5134689;27;20157;-75
2023/03/06 00:37:48;;;;;;;34.67;19.37;;;5.70;99.90;;;;;;5116436;27;20750;-75
2023/03/06 00:40:17;;;;;;;37.17;19.50;;;5.60;99.90;;;;;;5134563;27;20547;-76
2023/03/06 00:42:43;;;;;;;30.47;19.57;;;5.60;99.90;;;;;;5134833;27;20181;-76
2023/03/06 00:45:09;;;;;;;35.37;20.93;;;5.60;99.90;;;;;;5134557;27;20150;-75
2023/03/06 00:47:35;;;;;;;32.03;18.83;;;5.60;99.90;;;;;;5134138;27;20228;-76
2023/03/06 00:50:00;;;;;;;34.00;18.83;;;5.60;99.90;;;;;;5134045;27;20170;-76
2023/03/06 00:52:26;;;;;;;36.60;20.33;;;5.60;99.90;;;;;;5134450;27;20188;-76
2023/03/06 00:54:51;;;;;;;34.07;18.00;;;5.80;99.90;;;;;;5134225;27;20162;-71
2023/03/06 00:57:17;;;;;;;34.57;19.53;;;5.80;99.90;;;;;;5133973;27;20166;-71
2023/03/06 00:59:43;;;;;;;32.17;18.10;;;6.00;99.90;;;;;;5134322;27;20246;-70
2023/03/06 01:02:08;;;;;;;31.37;17.90;;;6.10;99.90;;;;;;5121378;27;20206;-71
2023/03/06 01:04:34;;;;;;;32.90;19.07;;;6.00;99.90;;;;;;5113562;28;20166;-71
2023/03/06 01:07:00;;;;;;;30.97;18.57;;;6.00;99.90;;;;;;5095438;28;20534;-71
2023/03/06 01:09:25;;;;;;;31.87;19.27;;;6.00;99.90;;;;;;5114123;28;20171;-72
2023/03/06 01:11:51;;;;;;;34.87;18.50;;;6.00;99.90;;;;;;5113818;28;20625;-72
2023/03/06 01:14:18;;;;;;;31.30;18.20;;;6.00;99.90;;;;;;5113886;28;20156;-71
2023/03/06 01:16:44;;;;;;;28.83;16.57;;;5.80;99.90;;;;;;5113419;28;20237;-72
2023/03/06 01:19:10;;;;;;;30.00;18.23;;;5.70;99.90;;;;;;5113314;28;20172;-73
2023/03/06 01:21:36;;;;;;;29.77;17.70;;;5.70;99.90;;;;;;5113410;28;20620;-71
2023/03/06 01:24:02;;;;;;;31.17;18.13;;;5.70;99.90;;;;;;5113558;28;20187;-72
2023/03/06 01:26:28;;;;;;;32.10;17.83;;;5.80;99.90;;;;;;5113411;28;20213;-72
2023/03/06 01:28:56;;;;;;;30.03;17.53;;;5.90;99.90;;;;;;5113495;28;20241;-72
2023/03/06 01:31:22;;;;;;;27.57;16.67;;;5.80;99.90;;;;;;5125246;27;20236;-71
2023/03/06 01:33:47;;;;;;;34.00;19.20;;;5.90;99.90;;;;;;5133977;27;20201;-71
2023/03/06 01:36:13;;;;;;;32.10;17.63;;;5.80;99.90;;;;;;5133768;27;20653;-72
2023/03/06 01:38:39;;;;;;;34.93;18.83;;;5.80;99.90;;;;;;5115175;27;20174;-71
2023/03/06 01:41:05;;;;;;;32.23;18.63;;;5.80;99.90;;;;;;5115162;27;20199;-72
2023/03/06 01:43:36;;;;;;;31.73;17.83;;;5.80;99.90;;;;;;5133387;27;20541;-73
2023/03/06 01:46:16;;;;;;;31.73;18.53;;;5.70;99.90;;;;;;5133472;27;20187;-71
2023/03/06 01:48:43;;;;;;;33.17;17.83;;;5.50;99.90;;;;;;5115208;28;20184;-72
2023/03/06 01:51:11;;;;;;;36.23;18.80;;;5.70;99.90;;;;;;5098489;28;20174;-72
2023/03/06 01:53:37;;;;;;;33.23;19.00;;;5.60;99.90;;;;;;5094626;28;20172;-72
2023/03/06 01:56:04;;;;;;;32.90;18.93;;;5.70;99.90;;;;;;5112998;28;20204;-71
2023/03/06 01:58:30;;;;;;;32.97;19.23;;;5.60;99.90;;;;;;5112697;28;20194;-71
2023/03/06 02:00:55;;;;;;;29.83;17.93;;;5.60;99.90;;;;;;5112616;28;20644;-71
2023/03/06 02:03:25;;;;;;;31.20;18.73;;;5.70;99.90;;;;;;5112801;28;20178;-71
2023/03/06 02:05:51;;;;;;;32.13;18.20;;;5.80;99.90;;;;;;5112857;28;20494;-72
2023/03/06 02:08:19;;;;;;;36.37;19.63;;;5.70;99.90;;;;;;5116030;28;20221;-71
2023/03/06 02:11:04;;;;;;;32.10;18.00;;;5.80;99.90;;;;;;5117128;28;20157;-72
2023/03/06 02:13:30;;;;;;;35.47;18.40;;;5.80;99.90;;;;;;5116935;28;20165;-70
2023/03/06 02:15:57;;;;;;;34.77;18.83;;;5.70;99.90;;;;;;5098321;28;20174;-70
2023/03/06 02:18:22;;;;;;;36.53;19.37;;;5.60;99.90;;;;;;5116475;28;20226;-71
2023/03/06 02:20:53;;;;;;;37.57;19.93;;;5.60;99.90;;;;;;5137071;27;20630;-69
2023/03/06 02:23:49;;;;;;;34.10;18.33;;;5.60;99.90;;;;;;5137580;27;20157;-71
2023/03/06 02:26:16;;;;;;;34.30;18.90;;;5.60;99.90;;;;;;5137605;27;20740;-71
2023/03/06 02:28:41;;;;;;;34.13;19.97;;;5.50;99.90;;;;;;5135405;27;20158;-72
2023/03/06 02:31:17;;;;;;;36.27;19.33;;;5.50;99.90;;;;;;5136941;27;20162;-71
2023/03/06 02:33:43;;;;;;;38.10;19.53;;;5.50;99.90;;;;;;5137044;27;20241;-71
2023/03/06 02:36:14;;;;;;;37.13;20.83;;;5.30;99.90;;;;;;5137146;27;20195;-71
2023/03/06 02:38:47;;;;;;;36.87;20.77;;;5.50;99.90;;;;;;5137007;27;20146;-72
2023/03/06 02:41:13;;;;;;;37.00;21.27;;;5.40;99.90;;;;;;5136875;27;20803;-75
2023/03/06 02:43:39;;;;;;;41.80;21.13;;;5.40;99.90;;;;;;5136645;27;20241;-76
2023/03/06 02:46:06;;;;;;;38.73;21.17;;;5.60;99.90;;;;;;5136486;27;20607;-75
2023/03/06 02:48:32;;;;;;;38.23;21.43;;;5.40;99.90;;;;;;5135636;27;20171;-75
2023/03/06 02:50:57;;;;;;;35.33;20.87;;;5.70;99.90;;;;;;5097866;28;20626;-74
2023/03/06 02:53:23;;;;;;;39.77;21.17;;;5.60;99.90;;;;;;5116034;28;20622;-76
2023/03/06 02:55:49;;;;;;;38.70;21.27;;;5.70;99.90;;;;;;5116154;28;20251;-75
2023/03/06 02:58:18;;;;;;;34.13;21.43;;;5.50;99.90;;;;;;5115872;28;20171;-76
2023/03/06 03:00:44;;;;;;;34.67;20.23;;;5.50;99.90;;;;;;5116298;28;20307;-76
2023/03/06 03:03:10;;;;;;;40.97;20.87;;;5.30;99.90;;;;;;5116217;28;20242;-79
2023/03/06 03:05:35;;;;;;;34.57;19.93;;;5.50;99.90;;;;;;5116195;28;20156;-79
2023/03/06 03:08:01;;;;;;;39.70;21.93;;;5.50;99.90;;;;;;5097688;28;20552;-78
2023/03/06 03:10:26;;;;;;;41.30;22.13;;;5.60;99.90;;;;;;5097593;28;20263;-78
2023/03/06 03:12:52;;;;;;;41.83;21.17;;;5.40;99.90;;;;;;5097479;28;20699;-79
2023/03/06 03:15:18;;;;;;;41.23;20.97;;;5.40;99.90;;;;;;5115803;28;20180;-79
2023/03/06 03:17:44;;;;;;;39.33;21.53;;;5.40;99.90;;;;;;5116062;28;20202;-79
2023/03/06 03:20:13;;;;;;;39.13;21.57;;;5.40;99.90;;;;;;5128671;27;20181;-79
2023/03/06 03:22:39;;;;;;;42.47;22.23;;;5.40;99.90;;;;;;5117695;27;20208;-79
2023/03/06 03:25:05;;;;;;;41.63;21.77;;;5.50;99.90;;;;;;5136064;27;20695;-78
2023/03/06 03:27:32;;;;;;;41.67;21.97;;;5.30;99.90;;;;;;5135640;27;20236;-78
2023/03/06 03:29:58;;;;;;;43.87;22.63;;;5.40;99.90;;;;;;5135665;27;20174;-78
2023/03/06 03:32:24;;;;;;;43.00;22.37;;;5.50;99.90;;;;;;5136137;27;20516;-79
2023/03/06 03:34:50;;;;;;;41.27;22.60;;;5.40;99.90;;;;;;5136031;27;20211;-79
2023/03/06 03:37:16;;;;;;;44.80;23.67;;;5.40;99.90;;;;;;5135865;27;20166;-79
2023/03/06 03:39:42;;;;;;;45.00;23.67;;;5.30;99.90;;;;;;5135707;27;20170;-79
2023/03/06 03:42:08;;;;;;;43.37;24.23;;;5.40;99.90;;;;;;5117256;27;20736;-79
2023/03/06 03:44:34;;;;;;;43.60;23.53;;;5.40;99.90;;;;;;5135624;27;20188;-78
2023/03/06 03:47:00;;;;;;;43.00;23.90;;;5.30;99.90;;;;;;5117265;27;20170;-79
2023/03/06 03:49:26;;;;;;;48.07;24.20;;;5.30;99.90;;;;;;5112166;28;20577;-79
2023/03/06 03:51:51;;;;;;;51.33;24.53;;;5.30;99.90;;;;;;5097030;28;20183;-80
2023/03/06 03:54:17;;;;;;;42.63;22.57;;;5.30;99.90;;;;;;5115350;28;20614;-80
2023/03/06 03:56:43;;;;;;;45.33;24.20;;;4.90;99.90;;;;;;5114657;28;20174;-79
2023/03/06 03:59:09;;;;;;;43.50;24.33;;;4.90;99.90;;;;;;5114850;28;20174;-79
2023/03/06 04:01:35;;;;;;;46.90;23.07;;;5.20;99.90;;;;;;5114753;28;20662;-79
2023/03/06 04:04:01;;;;;;;47.37;23.60;;;5.20;99.90;;;;;;5115071;28;20162;-80
2023/03/06 04:06:26;;;;;;;45.03;23.50;;;5.20;99.90;;;;;;5114598;28;20176;-79
2023/03/06 04:08:52;;;;;;;40.43;22.97;;;5.00;99.90;;;;;;5096175;28;20648;-78
2023/03/06 04:11:18;;;;;;;43.17;23.23;;;5.10;99.90;;;;;;5114484;28;20254;-78
2023/03/06 04:13:43;;;;;;;43.27;23.73;;;5.20;99.90;;;;;;5114533;28;20217;-78
2023/03/06 04:16:09;;;;;;;51.43;23.47;;;5.10;99.90;;;;;;5114838;28;20173;-78
2023/03/06 04:18:34;;;;;;;46.97;23.30;;;5.00;99.90;;;;;;5114652;28;20197;-77
2023/03/06 04:21:00;;;;;;;48.37;24.37;;;5.00;99.90;;;;;;5131319;27;20198;-78
2023/03/06 04:23:26;;;;;;;44.13;22.53;;;5.10;99.90;;;;;;5116465;27;20168;-79
2023/03/06 04:25:52;;;;;;;43.67;23.87;;;5.00;99.90;;;;;;5116125;27;20162;-78
2023/03/06 04:28:18;;;;;;;46.17;23.77;;;5.10;99.90;;;;;;5115818;27;20192;-78
2023/03/06 04:30:44;;;;;;;43.20;23.27;;;5.20;99.90;;;;;;5134398;27;20171;-73
2023/03/06 04:33:09;;;;;;;44.20;23.53;;;5.30;99.90;;;;;;5116138;27;20160;-73
2023/03/06 04:35:35;;;;;;;49.30;24.53;;;5.20;99.90;;;;;;5134575;27;20283;-73
2023/03/06 04:38:02;;;;;;;47.03;23.57;;;5.20;99.90;;;;;;5116200;27;20166;-73
2023/03/06 04:40:30;;;;;;;46.77;23.90;;;5.20;99.90;;;;;;5115738;27;20625;-73
2023/03/06 04:42:58;;;;;;;52.40;24.47;;;5.20;99.90;;;;;;5134407;27;20238;-74
2023/03/06 04:45:24;;;;;;;47.63;22.83;;;5.30;99.90;;;;;;5134484;27;20161;-75
2023/03/06 04:47:50;;;;;;;45.27;23.17;;;5.10;99.90;;;;;;5134451;27;20141;-74
2023/03/06 04:50:17;;;;;;;45.33;24.30;;;5.10;99.90;;;;;;5104313;28;20169;-74
2023/03/06 04:52:43;;;;;;;41.17;22.63;;;5.10;99.90;;;;;;5095151;28;20627;-73
2023/03/06 04:55:12;;;;;;;44.53;22.73;;;5.00;99.90;;;;;;5095114;28;20274;-73
2023/03/06 04:57:41;;;;;;;41.43;21.90;;;4.70;99.90;;;;;;5095104;28;20202;-73
2023/03/06 05:00:12;;;;;;;42.13;21.73;;;4.80;99.90;;;;;;5113653;28;20196;-73
2023/03/06 05:02:37;;;;;;;42.13;21.17;;;4.80;99.90;;;;;;5094733;28;20205;-73
2023/03/06 05:05:04;;;;;;;43.53;22.27;;;4.90;99.90;;;;;;5095206;28;20597;-74
2023/03/06 05:07:29;;;;;;;42.40;22.33;;;4.90;99.90;;;;;;5094872;28;20513;-74
2023/03/06 05:09:55;;;;;;;46.40;22.70;;;4.80;99.90;;;;;;5113186;28;20173;-73
2023/03/06 05:12:20;;;;;;;40.27;21.33;;;5.00;99.90;;;;;;5113320;28;20155;-73
2023/03/06 05:14:46;;;;;;;38.03;21.57;;;5.10;99.90;;;;;;5095223;28;20162;-73
2023/03/06 05:17:12;;;;;;;42.93;22.00;;;5.00;99.90;;;;;;5094935;28;20487;-74
2023/03/06 05:19:37;;;;;;;42.87;22.23;;;5.00;99.90;;;;;;5113202;28;20160;-74
2023/03/06 05:22:03;;;;;;;46.77;21.57;;;4.60;99.90;;;;;;5113177;28;20189;-73
2023/03/06 05:24:29;;;;;;;44.43;21.93;;;4.80;99.90;;;;;;5094637;28;20166;-74
2023/03/06 05:26:54;;;;;;;42.73;22.37;;;4.70;99.90;;;;;;5113015;28;20176;-74
2023/03/06 05:29:20;;;;;;;43.57;22.27;;;4.80;99.90;;;;;;5094776;28;20181;-74
2023/03/06 05:31:46;;;;;;;41.97;21.77;;;4.90;99.90;;;;;;5094838;28;20170;-74
2023/03/06 05:34:15;;;;;;;40.80;22.10;;;4.80;99.90;;;;;;5094859;28;20586;-74
2023/03/06 05:36:41;;;;;;;39.90;21.47;;;4.80;99.90;;;;;;5094615;28;20189;-73
2023/03/06 05:39:08;;;;;;;42.20;21.70;;;4.90;99.90;;;;;;5112524;28;20634;-73
2023/03/06 05:41:34;;;;;;;43.70;20.93;;;4.90;99.90;;;;;;5093849;28;20260;-73
2023/03/06 05:44:00;;;;;;;39.03;21.30;;;4.90;99.90;;;;;;5095680;28;20194;-74
2023/03/06 05:46:27;;;;;;;42.57;22.43;;;4.90;99.90;;;;;;5095099;28;20245;-73
2023/03/06 05:48:56;;;;;;;40.20;21.63;;;4.80;99.90;;;;;;5113477;28;20203;-73
2023/03/06 05:51:23;;;;;;;41.83;22.07;;;4.80;99.90;;;;;;5113432;28;20147;-73
2023/03/06 05:53:49;;;;;;;41.63;21.27;;;5.00;99.90;;;;;;5113067;28;20189;-73
2023/03/06 05:56:20;;;;;;;44.27;21.70;;;5.00;99.90;;;;;;5113718;28;20627;-73
2023/03/06 05:58:47;;;;;;;40.03;21.57;;;4.90;99.90;;;;;;5131496;28;20173;-74
2023/03/06 06:01:15;;;;;;;43.63;22.80;;;5.00;99.90;;;;;;5115682;28;20258;-72
2023/03/06 06:03:42;;;;;;;42.70;21.47;;;5.00;99.90;;;;;;5115362;28;20172;-72
2023/03/06 06:06:11;;;;;;;43.73;22.27;;;5.00;99.90;;;;;;5115417;28;20192;-73
2023/03/06 06:08:36;;;;;;;44.33;22.23;;;4.90;99.90;;;;;;5133260;28;20181;-73
2023/03/06 06:11:07;;;;;;;41.63;21.40;;;5.00;99.90;;;;;;5130737;27;20664;-73
2023/03/06 06:13:33;;;;;;;43.90;22.67;;;5.00;99.90;;;;;;5111790;28;20161;-72
2023/03/06 06:15:59;;;;;;;42.47;20.80;;;5.10;99.90;;;;;;5115365;28;20236;-72
2023/03/06 06:18:32;;;;;;;40.47;21.73;;;5.10;99.90;;;;;;5133443;28;20174;-78
2023/03/06 06:21:20;;;;;;;42.97;22.73;;;5.10;99.90;;;;;;5134396;28;20559;-78
2023/03/06 06:23:47;;;;;;;44.60;22.07;;;5.30;99.90;;;;;;5134833;28;20174;-78
2023/03/06 06:26:15;;;;;;;45.10;24.00;;;5.10;99.90;;;;;;5134391;28;20205;-78
2023/03/06 06:28:41;;;;;;;39.80;22.77;;;5.10;99.90;;;;;;5133897;28;20174;-79
2023/03/06 06:31:17;;;;;;;44.03;22.50;;;5.10;99.90;;;;;;5123450;28;20623;-78
2023/03/06 06:33:43;;;;;;;42.83;23.17;;;4.90;99.90;;;;;;5113603;28;20161;-79
2023/03/06 06:36:20;;;;;;;43.97;23.67;;;4.70;99.90;;;;;;5095260;28;20167;-77
2023/03/06 06:38:53;;;;;;;46.57;22.23;;;4.90;99.90;;;;;;5113793;28;20242;-79
2023/03/06 06:41:22;;;;;;;44.27;23.33;;;5.10;99.90;;;;;;5114007;28;20193;-78
2023/03/06 06:43:48;;;;;;;53.47;24.13;;;5.20;99.90;;;;;;5113639;28;20189;-78
2023/03/06 06:46:14;;;;;;;46.10;23.90;;;5.20;99.90;;;;;;5095019;28;20158;-79
2023/03/06 06:48:40;;;;;;;45.37;22.73;;;5.00;99.90;;;;;;5112163;28;20155;-74
2023/03/06 06:51:05;;;;;;;47.90;23.17;;;4.90;99.90;;;;;;5110854;28;20582;-71
2023/03/06 06:53:32;;;;;;;47.03;23.17;;;4.90;99.90;;;;;;5112654;28;20150;-72
2023/03/06 06:55:58;;;;;;;51.10;23.33;;;4.70;99.90;;;;;;5131198;27;20390;-72
2023/03/06 06:58:25;;;;;;;41.70;22.20;;;4.70;99.90;;;;;;5134189;27;20638;-73
2023/03/06 07:00:50;;;;;;;44.90;23.57;;;4.60;99.90;;;;;;5135333;27;20201;-72
2023/03/06 07:03:16;;;;;;;43.20;24.37;;;4.60;99.90;;;;;;5134801;27;20536;-73
2023/03/06 07:05:41;;;;;;;47.90;23.67;;;4.60;99.90;;;;;;5131948;27;20245;-72
2023/03/06 07:08:08;;;;;;;46.43;23.47;;;4.60;99.90;;;;;;5116291;27;20236;-72
2023/03/06 07:10:35;;;;;;;46.97;23.60;;;4.90;99.90;;;;;;5136674;27;20155;-72
2023/03/06 07:13:01;;;;;;;44.83;22.60;;;4.90;99.90;;;;;;5117765;27;20187;-72
2023/03/06 07:15:29;;;;;;;43.70;22.63;;;5.00;99.90;;;;;;5136752;27;20173;-72
2023/03/06 07:17:55;;;;;;;47.90;24.37;;;5.10;99.90;;;;;;5116077;28;20175;-72
2023/03/06 07:20:21;;;;;;;50.93;25.40;;;5.00;99.90;;;;;;5127973;27;20593;-72
2023/03/06 07:22:46;;;;;;;51.03;24.27;;;5.20;99.90;;;;;;5149495;27;20200;-71
2023/03/06 07:25:12;;;;;;;46.60;24.17;;;5.10;99.90;;;;;;5142006;27;20185;-72
2023/03/06 07:27:38;;;;;;;49.87;24.53;;;5.20;99.90;;;;;;5136126;27;20165;-72
2023/03/06 07:30:05;;;;;;;47.90;23.73;;;5.00;99.90;;;;;;5117379;27;20169;-72
2023/03/06 07:32:31;;;;;;;47.23;25.40;;;4.90;99.90;;;;;;5135643;27;20184;-73
2023/03/06 07:34:56;;;;;;;46.93;25.13;;;4.80;99.90;;;;;;5135910;27;20169;-72
2023/03/06 07:37:22;;;;;;;48.50;25.33;;;5.00;99.90;;;;;;5133863;27;20170;-72
2023/03/06 07:39:48;;;;;;;50.07;23.53;;;5.00;99.90;;;;;;5136042;27;20593;-72
2023/03/06 07:42:14;;;;;;;43.50;22.13;;;4.90;99.90;;;;;;5136225;27;20673;-72
2023/03/06 07:44:40;;;;;;;45.20;22.83;;;5.00;99.90;;;;;;5135950;27;20147;-72
2023/03/06 07:47:06;;;;;;;49.37;23.90;;;4.70;99.90;;;;;;5136116;27;20154;-71
2023/03/06 07:49:33;;;;;;;44.63;24.60;;;4.80;99.90;;;;;;5136119;27;20165;-72
2023/03/06 07:52:00;;;;;;;46.50;23.47;;;5.00;99.90;;;;;;5135579;27;20594;-73
2023/03/06 07:54:29;;;;;;;46.23;23.33;;;4.90;99.90;;;;;;5135946;27;20237;-72
2023/03/06 07:56:56;;;;;;;48.27;24.37;;;5.00;99.90;;;;;;5135820;27;20166;-73
2023/03/06 07:59:21;;;;;;;42.47;23.13;;;5.00;99.90;;;;;;5117495;27;20210;-72
2023/03/06 08:01:47;;;;;;;48.33;23.80;;;5.00;99.90;;;;;;5135771;27;20682;-71
2023/03/06 08:04:13;;;;;;;45.80;23.53;;;5.00;99.90;;;;;;5135457;27;20180;-73
2023/03/06 08:06:39;;;;;;;48.57;24.50;;;5.00;99.90;;;;;;5135133;27;20173;-74
2023/03/06 08:09:05;;;;;;;42.37;23.40;;;5.10;99.90;;;;;;5135937;27;20165;-75
2023/03/06 08:11:32;;;;;;;48.97;22.30;;;5.20;99.90;;;;;;5117079;27;20218;-74
2023/03/06 08:13:58;;;;;;;39.80;22.17;;;5.20;99.90;;;;;;5135219;27;20204;-73
2023/03/06 08:16:26;;;;;;;43.63;22.87;;;5.20;99.90;;;;;;5135319;27;20158;-75
2023/03/06 08:18:52;;;;;;;46.93;23.57;;;5.20;99.90;;;;;;5134774;27;20177;-73
2023/03/06 08:21:21;;;;;;;49.47;24.13;;;5.40;99.90;;;;;;5116646;27;20676;-73
2023/03/06 08:23:48;;;;;;;44.90;22.83;;;5.50;99.90;;;;;;5135154;27;20227;-74
2023/03/06 08:26:17;;;;;;;49.10;24.80;;;5.50;99.90;;;;;;5116644;27;20164;-74
2023/03/06 08:28:43;;;;;;;44.33;23.83;;;5.80;99.90;;;;;;5134787;27;20164;-74
2023/03/06 08:31:19;;;;;;;42.77;22.70;;;5.90;99.90;;;;;;5116621;27;20173;-74
2023/03/06 08:33:45;;;;;;;45.20;23.70;;;6.00;99.90;;;;;;5134657;27;20182;-74
2023/03/06 08:36:11;;;;;;;41.23;22.17;;;6.00;99.90;;;;;;5116230;27;20179;-74
2023/03/06 08:38:36;;;;;;;37.47;20.67;;;6.10;99.90;;;;;;5134513;27;20166;-75
2023/03/06 08:41:02;;;;;;;49.60;23.80;;;5.90;99.90;;;;;;5134288;27;20729;-73
2023/03/06 08:43:28;;;;;;;41.43;23.23;;;6.00;99.90;;;;;;5134531;27;20174;-73
2023/03/06 08:45:56;;;;;;;42.87;23.00;;;6.00;99.90;;;;;;5134521;27;20156;-74
2023/03/06 08:48:21;;;;;;;45.50;22.30;;;6.10;99.90;;;;;;5134298;27;20167;-74
2023/03/06 08:50:47;;;;;;;45.77;22.63;;;6.10;99.90;;;;;;5134293;27;20172;-73
2023/03/06 08:53:13;;;;;;;45.50;22.43;;;6.20;99.90;;;;;;5116281;27;20189;-74
2023/03/06 08:55:39;;;;;;;41.20;22.40;;;6.20;99.90;;;;;;5134573;27;20154;-74
2023/03/06 08:58:06;;;;;;;39.80;21.90;;;6.30;99.90;;;;;;5134379;27;20165;-74
2023/03/06 09:00:33;;;;;;;41.53;22.27;;;6.60;99.90;;;;;;5134253;27;20168;-74
2023/03/06 09:03:00;;;;;;;39.07;22.53;;;6.90;99.90;;;;;;5115409;27;20207;-73
2023/03/06 09:05:25;;;;;;;41.40;21.07;;;7.00;99.90;;;;;;5134304;27;20246;-73
2023/03/06 09:07:51;;;;;;;43.70;21.23;;;7.10;99.90;;;;;;5134231;27;20318;-73
2023/03/06 09:10:19;;;;;;;45.37;23.23;;;7.30;99.90;;;;;;5115904;27;20191;-73
2023/03/06 09:12:45;;;;;;;34.03;20.03;;;7.40;99.90;;;;;;5134222;27;20524;-73
2023/03/06 09:15:12;;;;;;;36.83;19.57;;;7.40;99.90;;;;;;5134281;27;20166;-73
2023/03/06 09:17:38;;;;;;;31.27;18.73;;;7.10;99.90;;;;;;5133674;27;20172;-73
2023/03/06 09:20:06;;;;;;;34.10;19.50;;;6.80;99.90;;;;;;5135075;27;20660;-73
2023/03/06 09:22:32;;;;;;;36.87;20.57;;;6.90;99.90;;;;;;5133804;27;20188;-73
2023/03/06 09:24:57;;;;;;;35.97;20.40;;;7.10;99.90;;;;;;5133944;27;20172;-73
2023/03/06 09:27:23;;;;;;;36.03;19.17;;;7.20;99.90;;;;;;5133757;27;20214;-73
2023/03/06 09:29:49;;;;;;;37.57;20.33;;;7.30;99.90;;;;;;5133586;27;20537;-74
2023/03/06 09:32:14;;;;;;;34.53;20.47;;;7.30;99.90;;;;;;5133533;27;20215;-73
2023/03/06 09:34:40;;;;;;;40.60;21.43;;;7.40;99.90;;;;;;5133547;27;20171;-73
2023/03/06 09:37:06;;;;;;;36.83;19.73;;;7.30;99.90;;;;;;5133635;27;20173;-73
2023/03/06 09:39:32;;;;;;;37.67;20.87;;;7.30;99.90;;;;;;5133716;27;20252;-73
2023/03/06 09:41:57;;;;;;;38.10;21.30;;;7.40;99.90;;;;;;5133490;27;20265;-74
2023/03/06 09:44:28;;;;;;;39.77;21.27;;;7.60;99.90;;;;;;5133443;27;20791;-74
2023/03/06 09:47:05;;;;;;;37.37;21.27;;;7.70;99.90;;;;;;5133349;27;20645;-74
2023/03/06 09:49:43;;;;;;;41.63;22.03;;;7.80;99.90;;;;;;5133736;27;20664;-73
2023/03/06 09:52:31;;;;;;;35.40;20.30;;;8.10;99.90;;;;;;5115065;27;20180;-73
2023/03/06 09:54:59;;;;;;;34.33;20.17;;;8.00;99.90;;;;;;5133235;27;20153;-73
2023/03/06 09:57:31;;;;;;;36.50;21.93;;;7.60;99.90;;;;;;5115124;28;20167;-74
2023/03/06 10:00:00;;;;;;;36.83;20.07;;;7.60;99.90;;;;;;5133381;28;20163;-74
2023/03/06 10:02:35;;;;;;;37.57;21.20;;;7.90;99.90;;;;;;5133356;28;20200;-74
2023/03/06 10:05:05;;;;;;;41.97;20.90;;;8.00;99.90;;;;;;5133326;28;20145;-73
2023/03/06 10:07:42;;;;;;;37.13;20.27;;;8.00;99.90;;;;;;5133066;28;20260;-74
2023/03/06 10:10:20;;;;;;;38.00;19.17;;;8.20;99.90;;;;;;5133318;28;20189;-73
2023/03/06 10:13:13;;;;;;;33.40;20.03;;;7.90;99.90;;;;;;5114869;28;20157;-73
2023/03/06 10:15:42;;;;;;;35.63;21.27;;;7.80;99.90;;;;;;5132902;28;20652;-74
2023/03/06 10:18:10;;;;;;;36.90;20.20;;;8.30;99.90;;;;;;5133043;28;20149;-74
2023/03/06 10:20:57;;;;;;;31.27;18.80;;;8.60;99.90;;;;;;5133183;28;20310;-73
2023/03/06 10:23:42;;;;;;;37.37;19.17;;;8.70;99.90;;;;;;5114553;28;20177;-74
2023/03/06 10:26:14;;;;;;;34.20;19.80;;;8.60;99.90;;;;;;5114714;28;20260;-73
2023/03/06 10:28:45;;;;;;;32.70;17.87;;;8.60;99.90;;;;;;5134488;27;20172;-74
2023/03/06 10:31:22;;;;;;;31.23;16.63;;;8.90;99.90;;;;;;5137117;27;20248;-74
2023/03/06 10:33:57;;;;;;;27.53;15.57;;;8.70;99.90;;;;;;5118512;27;20170;-74
2023/03/06 10:36:27;;;;;;;34.90;19.00;;;9.00;99.90;;;;;;5137325;27;20172;-74
2023/03/06 10:38:54;;;;;;;29.83;17.33;;;9.10;99.90;;;;;;5136857;27;20241;-75
2023/03/06 10:41:31;;;;;;;30.23;16.63;;;9.20;99.90;;;;;;5137036;27;20187;-73
2023/03/06 10:43:59;;;;;;;29.33;17.20;;;8.90;99.90;;;;;;5136686;27;20233;-74
2023/03/06 10:46:36;;;;;;;28.90;17.60;;;9.10;99.90;;;;;;5136823;27;20153;-73
2023/03/06 10:49:13;;;;;;;34.20;18.80;;;9.30;99.90;;;;;;5136952;27;20169;-75
2023/03/06 10:51:38;;;;;;;33.40;18.70;;;9.30;99.90;;;;;;5136927;27;20690;-74
2023/03/06 10:54:13;;;;;;;30.77;19.13;;;9.50;99.90;;;;;;5136733;27;20169;-73
2023/03/06 10:56:41;;;;;;;42.40;23.03;;;9.60;99.90;;;;;;5136788;27;20172;-74
2023/03/06 10:59:11;;;;;;;27.50;15.87;;;9.60;99.90;;;;;;5136407;27;20168;-74
2023/03/06 11:01:38;;;;;;;31.40;17.60;;;9.70;99.90;;;;;;5136816;27;20241;-74
2023/03/06 11:04:29;;;;;;;31.33;18.70;;;9.50;99.90;;;;;;5118285;27;20165;-74
2023/03/06 11:07:15;;;;;;;23.57;14.30;;;9.40;99.90;;;;;;5124685;27;20208;-74
2023/03/06 11:09:42;;;;;;;20.60;12.43;;;9.30;99.90;;;;;;5136649;27;20162;-74
2023/03/06 11:12:22;;;;;;;21.13;11.90;;;8.70;99.90;;;;;;5136571;27;20593;-73
2023/03/06 11:15:16;;;;;;;25.17;12.67;;;8.60;99.90;;;;;;5136500;27;20169;-74
2023/03/06 11:18:00;;;;;;;23.87;14.23;;;8.40;99.90;;;;;;5136839;27;20176;-74
2023/03/06 11:20:31;;;;;;;22.90;13.87;;;8.40;99.90;;;;;;5136443;27;20645;-73
2023/03/06 11:23:14;;;;;;;25.50;14.43;;;8.20;99.90;;;;;;5117990;27;20195;-73
2023/03/06 11:25:55;;;;;;;25.17;14.90;;;8.50;99.90;;;;;;5136293;27;20161;-74
2023/03/06 11:28:32;;;;;;;31.07;15.50;;;8.80;99.90;;;;;;5136482;27;20162;-74
2023/03/06 11:31:21;;;;;;;27.00;15.23;;;9.00;99.90;;;;;;5135704;27;20154;-74
2023/03/06 11:33:57;;;;;;;25.00;14.27;;;9.10;99.90;;;;;;5136530;27;20708;-74
2023/03/06 11:36:34;;;;;;;31.70;17.77;;;9.30;99.90;;;;;;5136082;27;20591;-74
2023/03/06 11:39:11;;;;;;;29.07;15.50;;;9.10;99.90;;;;;;5135667;27;20168;-73
2023/03/06 11:41:43;;;;;;;26.53;15.47;;;9.30;99.90;;;;;;5135749;27;20185;-74
2023/03/06 11:44:34;;;;;;;26.63;14.23;;;9.50;99.90;;;;;;5135791;27;20172;-73
2023/03/06 11:47:17;;;;;;;26.10;15.40;;;9.30;99.90;;;;;;5135389;27;20239;-74
2023/03/06 11:49:55;;;;;;;22.07;13.73;;;9.20;99.90;;;;;;5135804;27;20157;-73
2023/03/06 11:52:43;;;;;;;20.63;12.37;;;9.00;99.90;;;;;;5135911;27;20203;-74
2023/03/06 11:55:15;;;;;;;19.33;11.53;;;8.90;99.90;;;;;;5135477;27;20182;-74
2023/03/06 11:58:00;;;;;;;20.97;12.87;;;9.00;99.90;;;;;;5135536;27;20234;-74
2023/03/06 12:00:51;;;;;;;20.47;12.23;;;9.20;99.90;;;;;;5135767;27;20168;-74
2023/03/06 12:03:45;;;;;;;21.07;13.13;;;9.30;99.90;;;;;;5135817;27;20177;-74
2023/03/06 12:06:35;;;;;;;21.97;12.67;;;9.30;99.90;;;;;;5125579;27;20200;-74
2023/03/06 12:09:26;;;;;;;24.63;12.60;;;9.20;99.90;;;;;;5135366;27;20574;-74
2023/03/06 12:12:12;;;;;;;22.33;13.63;;;9.30;99.90;;;;;;5135164;27;20163;-74
2023/03/06 12:15:02;;;;;;;25.57;14.47;;;9.30;99.90;;;;;;5135338;27;20539;-74
2023/03/06 12:18:06;;;;;;;24.20;12.77;;;9.40;99.90;;;;;;5135512;27;20166;-74
2023/03/06 12:20:55;;;;;;;25.63;13.50;;;9.20;99.90;;;;;;5130139;27;20177;-73
2023/03/06 12:23:35;;;;;;;24.57;14.87;;;9.30;99.90;;;;;;5135077;27;20164;-75
2023/03/06 12:26:26;;;;;;;27.63;14.77;;;9.10;99.90;;;;;;5116438;27;20263;-74
2023/03/06 12:29:06;;;;;;;23.27;13.10;;;8.80;99.90;;;;;;5134895;27;20644;-74
2023/03/06 12:31:56;;;;;;;23.37;14.07;;;9.00;99.90;;;;;;5134949;27;20181;-73
2023/03/06 12:34:32;;;;;;;25.93;14.23;;;9.40;99.90;;;;;;5134895;27;20177;-73
2023/03/06 12:37:25;;;;;;;22.50;13.63;;;9.60;99.90;;;;;;5134889;27;20561;-73
2023/03/06 12:40:42;;;;;;;24.17;13.13;;;10.00;99.90;;;;;;5135027;27;20240;-74
2023/03/06 12:43:33;;;;;;;23.57;14.37;;;9.60;99.90;;;;;;5091597;27;20262;-74
2023/03/06 12:46:35;;;;;;;26.00;14.37;;;9.20;99.90;;;;;;5135180;27;20212;-74
2023/03/06 12:49:08;;;;;;;25.13;14.23;;;8.80;99.90;;;;;;5060940;27;20257;-73